Time;durP1;ratioP1;P1;durP2;ratioP2;P2;SDS_P1;SDS_P2;PMS_P1;PMS_P2;Temp;Humidity;BMP_temperature;BMP_pressure;BME280_temperature;BME280_humidity;BME280_pressure;Samples;Min_cycle;Max_cycle;Signal;HPM_P1;HPM_P2
2021/12/24 00:01:14;;;;;;;9.10;7.53;;;;;;;;;;5116199;28;20229;-66
2021/12/24 00:03:41;;;;;;;8.02;6.22;;;;;;;;;;5116844;28;20207;-66
2021/12/24 00:06:08;;;;;;;7.18;6.38;;;;;;;;;;5116282;28;20534;-66
2021/12/24 00:08:35;;;;;;;5.93;4.82;;;;;;;;;;5116472;28;20246;-66
2021/12/24 00:11:02;;;;;;;5.78;5.22;;;;;;;;;;5116455;28;20207;-66
2021/12/24 00:13:30;;;;;;;6.43;5.03;;;;;;;;;;5116393;28;20207;-66
2021/12/24 00:16:06;;;;;;;6.22;4.70;;;;;;;;;;5116776;28;20203;-66
2021/12/24 00:18:42;;;;;;;5.13;4.72;;;;;;;;;;5122055;28;20225;-66
2021/12/24 00:35:16;;;;;;;4.70;4.25;;;;;;;;;;5062997;28;20239;-66
2021/12/24 00:37:44;;;;;;;4.57;4.07;;;;;;;;;;5104380;28;20226;-66
2021/12/24 00:40:16;;;;;;;4.93;4.35;;;;;;;;;;5125812;28;20192;-66
2021/12/24 00:42:44;;;;;;;3.83;3.63;;;;;;;;;;5125710;28;20210;-66
2021/12/24 00:45:12;;;;;;;4.70;3.95;;;;;;;;;;5125353;27;20293;-66
2021/12/24 00:47:39;;;;;;;5.72;3.72;;;;;;;;;;5125579;28;20191;-66
2021/12/24 00:50:10;;;;;;;4.00;3.67;;;;;;;;;;5125534;28;20219;-66
2021/12/24 00:52:47;;;;;;;4.65;4.15;;;;;;;;;;5125948;28;20183;-66
2021/12/24 00:55:13;;;;;;;4.30;3.90;;;;;;;;;;5125206;28;20190;-66
2021/12/24 00:57:40;;;;;;;4.20;3.67;;;;;;;;;;5125624;28;20219;-66
2021/12/24 01:00:08;;;;;;;4.13;3.83;;;;;;;;;;5125296;28;20204;-66
2021/12/24 01:02:35;;;;;;;4.80;3.50;;;;;;;;;;5125624;27;20491;-66
2021/12/24 01:05:03;;;;;;;6.38;3.90;;;;;;;;;;5125206;28;20343;-66
2021/12/24 01:07:29;;;;;;;6.82;4.45;;;;;;;;;;5125199;28;20203;-66
2021/12/24 01:09:56;;;;;;;5.38;4.47;;;;;;;;;;5125398;28;20565;-66
2021/12/24 01:12:23;;;;;;;5.03;3.88;;;;;;;;;;5125243;28;20233;-66
2021/12/24 01:14:50;;;;;;;4.55;4.15;;;;;;;;;;5125256;28;20206;-66
2021/12/24 01:17:28;;;;;;;4.57;4.18;;;;;;;;;;5124743;28;20191;-66
2021/12/24 01:19:59;;;;;;;3.97;3.22;;;;;;;;;;5125091;28;20191;-66
2021/12/24 01:25:20;;;;;;;3.90;3.50;;;;;;;;;;5124873;28;20398;-66
2021/12/24 01:38:58;;;;;;;3.45;3.17;;;;;;;;;;5124763;28;20247;-66
2021/12/24 01:44:04;;;;;;;3.80;3.50;;;;;;;;;;5124269;28;20194;-66
2021/12/24 01:46:31;;;;;;;3.85;3.55;;;;;;;;;;5124327;28;20636;-66
2021/12/24 01:48:57;;;;;;;4.00;3.53;;;;;;;;;;5124998;28;20219;-66
2021/12/24 01:51:24;;;;;;;4.47;4.13;;;;;;;;;;5124632;27;20195;-66
2021/12/24 01:53:52;;;;;;;3.40;3.15;;;;;;;;;;5124400;28;20191;-66
2021/12/24 01:56:18;;;;;;;3.78;3.47;;;;;;;;;;5124349;28;20277;-66
2021/12/24 01:58:44;;;;;;;4.18;3.70;;;;;;;;;;5124363;28;20212;-66
2021/12/24 02:01:11;;;;;;;3.70;3.05;;;;;;;;;;5124353;28;20343;-66
2021/12/24 02:03:37;;;;;;;4.47;2.90;;;;;;;;;;5124217;28;20195;-66
2021/12/24 02:06:04;;;;;;;3.20;3.00;;;;;;;;;;5123932;28;20218;-66
2021/12/24 02:08:30;;;;;;;4.25;3.25;;;;;;;;;;5124222;28;20195;-66
2021/12/24 02:10:58;;;;;;;3.75;3.40;;;;;;;;;;5123921;28;20405;-66
2021/12/24 02:13:25;;;;;;;3.38;3.17;;;;;;;;;;5124091;28;20222;-66
2021/12/24 02:16:06;;;;;;;3.10;3.00;;;;;;;;;;5123560;28;20260;-66
2021/12/24 02:28:15;;;;;;;3.28;3.00;;;;;;;;;;5123878;28;20539;-66
2021/12/24 02:29:48;;;;;;;3.22;3.03;;;;;;;;;;5123709;28;20233;-66
2021/12/24 02:32:15;;;;;;;3.25;3.00;;;;;;;;;;5123392;28;20195;-66
2021/12/24 02:34:41;;;;;;;3.80;3.35;;;;;;;;;;5123639;28;20203;-66
2021/12/24 02:37:09;;;;;;;3.40;3.10;;;;;;;;;;5123691;28;20392;-66
2021/12/24 02:39:35;;;;;;;3.53;3.13;;;;;;;;;;5123454;28;20191;-66
2021/12/24 02:42:10;;;;;;;2.92;2.60;;;;;;;;;;5123329;28;20195;-66
2021/12/24 02:44:37;;;;;;;3.05;2.90;;;;;;;;;;5123217;28;20537;-66
2021/12/24 02:47:13;;;;;;;3.95;3.53;;;;;;;;;;5123293;28;20398;-66
2021/12/24 02:55:10;;;;;;;3.33;3.13;;;;;;;;;;5123037;28;20182;-66
2021/12/24 02:57:38;;;;;;;4.15;3.78;;;;;;;;;;5123357;28;20202;-66
2021/12/24 03:00:13;;;;;;;3.58;3.35;;;;;;;;;;5122963;28;20199;-66
2021/12/24 03:02:39;;;;;;;4.90;4.45;;;;;;;;;;5122967;28;20205;-66
2021/12/24 03:05:06;;;;;;;4.60;3.58;;;;;;;;;;5122798;28;20195;-66
2021/12/24 03:07:34;;;;;;;4.22;3.40;;;;;;;;;;5123068;28;20195;-66
2021/12/24 03:10:00;;;;;;;3.83;3.60;;;;;;;;;;5122929;28;20215;-66
2021/12/24 03:12:28;;;;;;;3.47;3.28;;;;;;;;;;5122705;28;20195;-66
2021/12/24 03:14:55;;;;;;;4.25;3.60;;;;;;;;;;5122644;28;20195;-66
2021/12/24 03:17:24;;;;;;;3.78;3.47;;;;;;;;;;5123018;28;20195;-66
2021/12/24 03:19:52;;;;;;;3.28;3.08;;;;;;;;;;5123108;28;20197;-66
2021/12/24 03:22:34;;;;;;;3.50;3.30;;;;;;;;;;5122699;28;20254;-66
2021/12/24 03:25:02;;;;;;;3.65;3.33;;;;;;;;;;5122927;28;20250;-66
2021/12/24 03:27:28;;;;;;;3.47;3.28;;;;;;;;;;5123148;28;20203;-66
2021/12/24 03:29:55;;;;;;;3.78;3.45;;;;;;;;;;5123027;28;20214;-66
2021/12/24 03:32:22;;;;;;;3.80;3.50;;;;;;;;;;5122450;28;20195;-66
2021/12/24 03:34:48;;;;;;;4.65;3.45;;;;;;;;;;5122252;28;20198;-66
2021/12/24 03:37:15;;;;;;;3.80;3.50;;;;;;;;;;5122818;28;20195;-66
2021/12/24 03:39:41;;;;;;;3.40;3.10;;;;;;;;;;5122799;28;20198;-66
2021/12/24 03:42:09;;;;;;;3.53;3.25;;;;;;;;;;5122334;28;20191;-66
2021/12/24 03:44:41;;;;;;;3.38;3.10;;;;;;;;;;5122425;28;20215;-66
2021/12/24 03:47:11;;;;;;;3.05;2.85;;;;;;;;;;5122607;28;20226;-66
2021/12/24 03:49:41;;;;;;;3.80;2.97;;;;;;;;;;5122497;28;20249;-66
2021/12/24 03:52:20;;;;;;;3.15;2.90;;;;;;;;;;5122429;28;20226;-66
2021/12/24 03:54:56;;;;;;;3.08;2.88;;;;;;;;;;5122275;28;20222;-66
2021/12/24 03:57:24;;;;;;;2.78;2.67;;;;;;;;;;5124086;28;20222;-66
2021/12/24 03:59:50;;;;;;;4.43;3.10;;;;;;;;;;5126498;28;20589;-66
2021/12/24 04:02:17;;;;;;;3.10;2.90;;;;;;;;;;5126308;28;20195;-66
2021/12/24 04:04:43;;;;;;;2.65;2.45;;;;;;;;;;5126463;27;20195;-66
2021/12/24 04:07:10;;;;;;;3.10;2.90;;;;;;;;;;5126504;28;20202;-66
2021/12/24 04:09:39;;;;;;;2.92;2.75;;;;;;;;;;5126573;28;20376;-66
2021/12/24 04:12:06;;;;;;;2.90;2.72;;;;;;;;;;5126361;28;20191;-66
2021/12/24 04:14:34;;;;;;;2.75;2.55;;;;;;;;;;5126253;28;20199;-66
2021/12/24 04:17:00;;;;;;;3.17;2.70;;;;;;;;;;5126266;28;20195;-66
2021/12/24 04:24:50;;;;;;;2.63;2.42;;;;;;;;;;5126474;28;20393;-66
2021/12/24 04:25:07;;;;;;;2.50;2.40;;;;;;;;;;5125785;28;20208;-66
2021/12/24 04:27:33;;;;;;;2.88;2.67;;;;;;;;;;5125862;28;20198;-66
2021/12/24 04:30:07;;;;;;;2.90;2.70;;;;;;;;;;5126255;28;20282;-66
2021/12/24 04:32:48;;;;;;;3.10;2.60;;;;;;;;;;5126213;28;20255;-66
2021/12/24 04:35:20;;;;;;;2.50;2.40;;;;;;;;;;5125679;28;20525;-66
2021/12/24 04:38:09;;;;;;;2.63;2.42;;;;;;;;;;5126077;28;20369;-66
2021/12/24 04:51:34;;;;;;;4.88;2.95;;;;;;;;;;5125608;28;20237;-66
2021/12/24 05:02:29;;;;;;;2.80;2.70;;;;;;;;;;5125417;28;20212;-66
2021/12/24 05:05:02;;;;;;;4.85;3.40;;;;;;;;;;5125079;28;20216;-66
2021/12/24 05:08:00;;;;;;;3.80;3.50;;;;;;;;;;5125333;28;20188;-66
2021/12/24 05:10:30;;;;;;;3.88;3.47;;;;;;;;;;5124557;28;20217;-66
2021/12/24 05:12:56;;;;;;;3.92;3.28;;;;;;;;;;5125549;28;20183;-66
2021/12/24 05:15:23;;;;;;;3.60;3.30;;;;;;;;;;5125054;28;20195;-66
2021/12/24 05:18:05;;;;;;;3.33;2.88;;;;;;;;;;5125441;28;20252;-66
2021/12/24 05:23:16;;;;;;;3.25;2.55;;;;;;;;;;5125103;28;20221;-66
2021/12/24 05:25:44;;;;;;;2.92;2.72;;;;;;;;;;5125127;28;20202;-66
2021/12/24 05:28:10;;;;;;;3.17;2.92;;;;;;;;;;5124920;28;20195;-66
2021/12/24 05:30:37;;;;;;;4.03;2.67;;;;;;;;;;5125111;28;20526;-66
2021/12/24 05:33:05;;;;;;;4.05;3.25;;;;;;;;;;5124739;28;20202;-66
2021/12/24 05:35:31;;;;;;;3.55;3.25;;;;;;;;;;5124480;28;20202;-66
2021/12/24 05:37:57;;;;;;;4.55;4.25;;;;;;;;;;5124488;28;20195;-66
2021/12/24 05:40:24;;;;;;;5.72;5.22;;;;;;;;;;5124497;28;20187;-66
2021/12/24 05:42:50;;;;;;;4.82;4.47;;;;;;;;;;5124605;28;20554;-66
2021/12/24 05:45:17;;;;;;;4.82;4.22;;;;;;;;;;5124493;28;20207;-66
2021/12/24 05:47:43;;;;;;;3.13;2.92;;;;;;;;;;5124248;28;20195;-66
2021/12/24 05:50:11;;;;;;;3.25;3.05;;;;;;;;;;5124174;28;20227;-66
2021/12/24 05:52:37;;;;;;;6.90;3.80;;;;;;;;;;5124282;28;20294;-66
2021/12/24 05:55:04;;;;;;;5.88;5.28;;;;;;;;;;5124053;28;20195;-66
2021/12/24 05:57:31;;;;;;;9.00;5.72;;;;;;;;;;5124061;28;20210;-66
2021/12/24 05:59:57;;;;;;;4.85;4.32;;;;;;;;;;5124556;28;20199;-66
2021/12/24 06:02:24;;;;;;;3.88;3.50;;;;;;;;;;5124242;28;20503;-66
2021/12/24 06:04:50;;;;;;;4.82;3.88;;;;;;;;;;5123897;28;20388;-66
2021/12/24 06:07:18;;;;;;;4.03;3.53;;;;;;;;;;5123954;28;20199;-66
2021/12/24 06:09:44;;;;;;;5.80;4.38;;;;;;;;;;5123943;28;20196;-66
2021/12/24 06:12:11;;;;;;;6.30;5.32;;;;;;;;;;5124355;28;20363;-66
2021/12/24 06:14:39;;;;;;;4.60;3.92;;;;;;;;;;5123749;28;20207;-66
2021/12/24 06:17:10;;;;;;;4.68;4.28;;;;;;;;;;5123654;28;20195;-66
2021/12/24 06:19:36;;;;;;;4.28;3.90;;;;;;;;;;5123592;28;20195;-66
2021/12/24 06:22:03;;;;;;;3.55;3.30;;;;;;;;;;5124042;28;20198;-66
2021/12/24 06:24:31;;;;;;;4.85;2.97;;;;;;;;;;5123594;27;20225;-66
2021/12/24 06:26:58;;;;;;;3.30;2.92;;;;;;;;;;5123876;28;20502;-66
2021/12/24 06:29:24;;;;;;;2.88;2.78;;;;;;;;;;5123594;28;20202;-66
2021/12/24 06:31:51;;;;;;;3.20;2.90;;;;;;;;;;5123523;28;20214;-66
2021/12/24 06:34:17;;;;;;;3.45;2.90;;;;;;;;;;5123784;28;20195;-66
2021/12/24 06:36:46;;;;;;;2.60;2.45;;;;;;;;;;5123564;28;20495;-66
2021/12/24 06:39:13;;;;;;;3.55;3.35;;;;;;;;;;5123623;28;20407;-66
2021/12/24 06:41:41;;;;;;;3.38;3.00;;;;;;;;;;5123543;28;20198;-66
2021/12/24 06:44:10;;;;;;;3.30;3.10;;;;;;;;;;5123453;28;20196;-66
2021/12/24 06:46:36;;;;;;;3.85;3.10;;;;;;;;;;5123105;28;20440;-66
2021/12/24 06:49:03;;;;;;;3.03;2.83;;;;;;;;;;5123432;28;20469;-66
2021/12/24 06:51:29;;;;;;;5.05;2.67;;;;;;;;;;5123472;28;20218;-66
2021/12/24 06:53:56;;;;;;;2.90;2.70;;;;;;;;;;5123179;28;20202;-67
2021/12/24 06:56:22;;;;;;;2.65;2.55;;;;;;;;;;5123183;28;20187;-67
2021/12/24 06:58:50;;;;;;;3.88;2.67;;;;;;;;;;5123078;28;20248;-67
2021/12/24 07:01:17;;;;;;;4.22;2.33;;;;;;;;;;5123125;28;20199;-67
2021/12/24 07:03:43;;;;;;;3.65;3.00;;;;;;;;;;5123085;27;20203;-67
2021/12/24 07:06:09;;;;;;;4.00;2.70;;;;;;;;;;5123231;28;20210;-67
2021/12/24 07:08:36;;;;;;;2.92;2.67;;;;;;;;;;5122780;28;20195;-67
2021/12/24 07:11:03;;;;;;;2.95;2.70;;;;;;;;;;5122834;28;20222;-68
2021/12/24 07:13:29;;;;;;;2.90;2.75;;;;;;;;;;5123016;28;20293;-67
2021/12/24 07:15:57;;;;;;;3.25;3.05;;;;;;;;;;5123187;28;20204;-67
2021/12/24 07:18:23;;;;;;;3.90;2.65;;;;;;;;;;5123298;28;20195;-67
2021/12/24 07:20:50;;;;;;;3.00;2.80;;;;;;;;;;5123199;28;20198;-67
2021/12/24 07:23:16;;;;;;;3.40;3.20;;;;;;;;;;5122932;28;20202;-67
2021/12/24 07:25:43;;;;;;;3.83;3.55;;;;;;;;;;5122732;28;20202;-67
2021/12/24 07:28:09;;;;;;;3.35;3.10;;;;;;;;;;5122528;28;20190;-68
2021/12/24 07:30:36;;;;;;;3.47;3.03;;;;;;;;;;5122386;28;20232;-68
2021/12/24 07:33:03;;;;;;;3.20;3.00;;;;;;;;;;5121960;28;20195;-67
2021/12/24 07:35:30;;;;;;;4.18;2.70;;;;;;;;;;5123062;28;20195;-68
2021/12/24 07:37:56;;;;;;;3.25;3.00;;;;;;;;;;5122698;28;20195;-67
2021/12/24 07:40:25;;;;;;;3.63;2.70;;;;;;;;;;5122618;28;20191;-67
2021/12/24 07:42:52;;;;;;;3.15;2.95;;;;;;;;;;5122526;28;20210;-67
2021/12/24 07:45:18;;;;;;;2.50;2.40;;;;;;;;;;5122552;28;20250;-67
2021/12/24 07:47:55;;;;;;;4.43;2.60;;;;;;;;;;5122833;28;20222;-67
2021/12/24 07:53:03;;;;;;;2.80;2.60;;;;;;;;;;5122247;28;20218;-67
2021/12/24 07:55:30;;;;;;;5.18;2.90;;;;;;;;;;5122670;28;20439;-67
2021/12/24 07:57:56;;;;;;;2.72;2.50;;;;;;;;;;5122502;28;20525;-67
2021/12/24 08:00:26;;;;;;;3.03;2.75;;;;;;;;;;5122443;28;20364;-67
2021/12/24 08:02:52;;;;;;;2.70;2.60;;;;;;;;;;5122595;28;20195;-66
2021/12/24 08:05:22;;;;;;;2.90;2.70;;;;;;;;;;5122144;28;20235;-67
2021/12/24 08:07:50;;;;;;;3.97;2.92;;;;;;;;;;5122265;28;20199;-66
2021/12/24 08:10:17;;;;;;;4.57;3.05;;;;;;;;;;5122131;28;20195;-66
2021/12/24 08:12:43;;;;;;;3.03;2.80;;;;;;;;;;5122536;28;20218;-67
2021/12/24 08:15:10;;;;;;;3.38;3.10;;;;;;;;;;5122544;28;20486;-67
2021/12/24 08:17:37;;;;;;;3.60;3.25;;;;;;;;;;5122704;28;20195;-67
2021/12/24 08:20:04;;;;;;;3.42;2.38;;;;;;;;;;5122453;28;20502;-67
2021/12/24 08:22:30;;;;;;;2.72;2.63;;;;;;;;;;5121567;28;20195;-67
2021/12/24 08:24:58;;;;;;;3.20;2.78;;;;;;;;;;5122241;28;20203;-67
2021/12/24 08:27:25;;;;;;;3.70;3.10;;;;;;;;;;5122423;28;20195;-67
2021/12/24 08:29:52;;;;;;;3.13;2.90;;;;;;;;;;5122622;28;20252;-67
2021/12/24 08:32:18;;;;;;;4.10;3.17;;;;;;;;;;5122032;28;20239;-68
2021/12/24 08:34:45;;;;;;;3.72;3.30;;;;;;;;;;5121989;28;20364;-67
2021/12/24 08:37:12;;;;;;;3.22;3.03;;;;;;;;;;5122704;28;20202;-67
2021/12/24 08:39:38;;;;;;;2.55;2.40;;;;;;;;;;5122146;28;20195;-67
2021/12/24 08:42:07;;;;;;;3.35;3.15;;;;;;;;;;5122023;28;20191;-67
2021/12/24 08:44:33;;;;;;;3.33;3.13;;;;;;;;;;5125298;28;20203;-67
2021/12/24 08:47:01;;;;;;;2.70;2.50;;;;;;;;;;5126064;28;20297;-67
2021/12/24 08:49:27;;;;;;;4.75;3.00;;;;;;;;;;5125331;28;20197;-67
2021/12/24 08:51:54;;;;;;;2.78;2.38;;;;;;;;;;5125489;28;20218;-67
2021/12/24 08:54:21;;;;;;;3.05;2.72;;;;;;;;;;5125636;28;20503;-67
2021/12/24 08:56:47;;;;;;;3.28;2.97;;;;;;;;;;5125519;28;20429;-67
2021/12/24 08:59:15;;;;;;;3.30;3.20;;;;;;;;;;5125414;28;20555;-67
2021/12/24 09:01:43;;;;;;;2.90;2.75;;;;;;;;;;5125191;28;20199;-65
2021/12/24 09:04:09;;;;;;;2.80;2.58;;;;;;;;;;5125657;28;20203;-66
2021/12/24 09:06:36;;;;;;;3.13;2.92;;;;;;;;;;5125202;28;20199;-67
2021/12/24 09:09:03;;;;;;;2.97;2.55;;;;;;;;;;5125202;28;20201;-67
2021/12/24 09:11:29;;;;;;;4.53;3.00;;;;;;;;;;5125393;28;20580;-67
2021/12/24 09:13:56;;;;;;;2.70;2.60;;;;;;;;;;5125191;28;20195;-67
2021/12/24 09:16:24;;;;;;;2.95;2.38;;;;;;;;;;5125004;28;20202;-65
2021/12/24 09:18:57;;;;;;;3.05;2.85;;;;;;;;;;5125516;28;20202;-66
2021/12/24 09:21:23;;;;;;;3.30;3.03;;;;;;;;;;5125008;28;20191;-66
2021/12/24 09:23:50;;;;;;;2.97;2.78;;;;;;;;;;5125325;28;20252;-66
2021/12/24 09:26:23;;;;;;;2.72;2.53;;;;;;;;;;5125190;28;20420;-66
2021/12/24 09:28:49;;;;;;;2.90;2.70;;;;;;;;;;5125181;28;20254;-66
2021/12/24 09:31:16;;;;;;;3.10;2.90;;;;;;;;;;5125219;28;20215;-66
2021/12/24 09:33:43;;;;;;;3.40;3.10;;;;;;;;;;5125056;28;20202;-66
2021/12/24 09:36:10;;;;;;;4.05;3.05;;;;;;;;;;5124846;28;20202;-66
2021/12/24 09:38:36;;;;;;;6.50;3.20;;;;;;;;;;5124614;28;20369;-53
2021/12/24 09:41:03;;;;;;;4.65;2.83;;;;;;;;;;5124915;27;20187;-53
2021/12/24 09:43:30;;;;;;;2.85;2.60;;;;;;;;;;5124661;28;20240;-54
2021/12/24 09:45:56;;;;;;;3.42;3.10;;;;;;;;;;5124690;28;20238;-55
2021/12/24 09:48:22;;;;;;;3.35;3.00;;;;;;;;;;5124317;28;20198;-54
2021/12/24 09:50:50;;;;;;;4.80;3.25;;;;;;;;;;5124525;28;20194;-54
2021/12/24 09:53:17;;;;;;;3.47;3.13;;;;;;;;;;5123754;27;20198;-54
2021/12/24 09:55:43;;;;;;;4.28;3.45;;;;;;;;;;5123344;28;20195;-55
2021/12/24 09:58:10;;;;;;;4.10;3.80;;;;;;;;;;5124102;28;20411;-55
2021/12/24 10:00:36;;;;;;;86.38;18.23;;;;;;;;;;5124094;28;20195;-54
2021/12/24 10:03:02;;;;;;;151.52;34.92;;;;;;;;;;5124437;28;20214;-55
2021/12/24 10:05:33;;;;;;;5.45;4.45;;;;;;;;;;5123861;28;20199;-54
2021/12/24 10:08:12;;;;;;;3.95;3.47;;;;;;;;;;5124498;28;20183;-55
2021/12/24 10:10:41;;;;;;;4.40;3.03;;;;;;;;;;5123885;28;20191;-56
2021/12/24 10:13:24;;;;;;;5.60;3.72;;;;;;;;;;5123968;28;20591;-54
2021/12/24 10:15:51;;;;;;;3.65;3.35;;;;;;;;;;5123407;28;20194;-54
2021/12/24 10:18:26;;;;;;;3.58;3.28;;;;;;;;;;5123872;28;20278;-54
2021/12/24 10:20:58;;;;;;;4.75;3.53;;;;;;;;;;5118020;28;20494;-52
2021/12/24 10:23:39;;;;;;;3.22;2.92;;;;;;;;;;5116823;28;20214;-53
2021/12/24 10:26:14;;;;;;;6.03;3.47;;;;;;;;;;5116992;28;20213;-53
2021/12/24 10:28:48;;;;;;;4.15;3.58;;;;;;;;;;5120773;28;20257;-53
2021/12/24 10:31:17;;;;;;;13.52;3.72;;;;;;;;;;5118492;28;20203;-54
2021/12/24 10:34:03;;;;;;;3.65;3.28;;;;;;;;;;5116474;28;20218;-54
2021/12/24 10:36:30;;;;;;;10.73;3.83;;;;;;;;;;5117509;28;20582;-53
2021/12/24 10:38:58;;;;;;;4.63;3.60;;;;;;;;;;5118639;27;20490;-53
2021/12/24 10:41:25;;;;;;;3.92;3.33;;;;;;;;;;5127466;27;20403;-53
2021/12/24 10:43:52;;;;;;;8.80;3.50;;;;;;;;;;5117279;28;20202;-54
2021/12/24 10:46:19;;;;;;;5.03;3.35;;;;;;;;;;5117109;28;20223;-53
2021/12/24 10:49:01;;;;;;;5.72;3.63;;;;;;;;;;5118050;28;20207;-52
2021/12/24 10:51:53;;;;;;;10.82;7.18;;;;;;;;;;5117454;28;20223;-53
2021/12/24 10:54:20;;;;;;;6.10;3.80;;;;;;;;;;5117222;28;20534;-54
2021/12/24 10:56:47;;;;;;;3.78;3.58;;;;;;;;;;5117186;28;20207;-54
2021/12/24 10:59:13;;;;;;;6.03;5.43;;;;;;;;;;5117539;28;20222;-52
2021/12/24 11:01:40;;;;;;;4.32;3.92;;;;;;;;;;5117581;28;20409;-54
2021/12/24 11:04:06;;;;;;;7.38;3.80;;;;;;;;;;5117277;28;20203;-53
2021/12/24 11:06:33;;;;;;;5.63;4.40;;;;;;;;;;5116528;28;20214;-53
2021/12/24 11:09:00;;;;;;;6.35;4.38;;;;;;;;;;5116668;28;20211;-53
2021/12/24 11:11:35;;;;;;;5.03;3.97;;;;;;;;;;5117210;28;20206;-53
2021/12/24 11:14:01;;;;;;;3.92;3.65;;;;;;;;;;5117453;28;20213;-53
2021/12/24 11:16:28;;;;;;;4.63;3.63;;;;;;;;;;5127141;27;20518;-53
2021/12/24 11:18:56;;;;;;;6.28;4.20;;;;;;;;;;5137849;27;20206;-53
2021/12/24 11:21:23;;;;;;;4.10;3.75;;;;;;;;;;5127925;27;20274;-54
2021/12/24 11:23:50;;;;;;;5.93;4.57;;;;;;;;;;5117291;28;20230;-53
2021/12/24 11:26:18;;;;;;;9.52;3.97;;;;;;;;;;5117104;28;20207;-54
2021/12/24 11:28:46;;;;;;;5.28;4.05;;;;;;;;;;5117201;28;20214;-54
2021/12/24 11:31:13;;;;;;;4.32;3.90;;;;;;;;;;5116192;28;20213;-53
2021/12/24 11:33:42;;;;;;;6.97;4.47;;;;;;;;;;5115221;28;20222;-53
2021/12/24 11:36:09;;;;;;;4.07;3.67;;;;;;;;;;5116916;28;20206;-53
2021/12/24 11:38:38;;;;;;;5.68;3.42;;;;;;;;;;5117036;28;20541;-53
2021/12/24 11:41:05;;;;;;;3.70;3.33;;;;;;;;;;5116653;28;20202;-53
2021/12/24 11:43:33;;;;;;;3.75;3.17;;;;;;;;;;5116909;28;20551;-52
2021/12/24 11:46:02;;;;;;;4.05;3.75;;;;;;;;;;5116630;28;20228;-52
2021/12/24 11:48:31;;;;;;;4.18;3.63;;;;;;;;;;5117119;28;20266;-54
2021/12/24 11:50:58;;;;;;;3.78;3.47;;;;;;;;;;5117019;28;20206;-55
2021/12/24 11:53:26;;;;;;;5.05;3.42;;;;;;;;;;5116550;28;20229;-53
2021/12/24 11:55:52;;;;;;;4.50;3.55;;;;;;;;;;5116580;28;20214;-54
2021/12/24 11:58:20;;;;;;;3.72;3.53;;;;;;;;;;5116624;28;20477;-54
2021/12/24 12:00:48;;;;;;;3.58;3.22;;;;;;;;;;5116662;28;20214;-53
2021/12/24 12:03:30;;;;;;;3.33;3.13;;;;;;;;;;5116043;28;20203;-53
2021/12/24 12:05:57;;;;;;;3.10;2.90;;;;;;;;;;5116407;28;20522;-53
2021/12/24 12:08:36;;;;;;;4.00;3.60;;;;;;;;;;5116768;28;20214;-52
2021/12/24 12:11:04;;;;;;;4.47;3.60;;;;;;;;;;5116474;28;20206;-53
2021/12/24 12:13:38;;;;;;;4.45;3.53;;;;;;;;;;5116328;28;20272;-53
2021/12/24 12:16:05;;;;;;;4.72;3.75;;;;;;;;;;5122331;28;20206;-53
2021/12/24 12:18:43;;;;;;;4.97;4.57;;;;;;;;;;5118782;28;20207;-52
2021/12/24 12:21:10;;;;;;;3.85;3.55;;;;;;;;;;5120601;28;20245;-53
2021/12/24 12:23:50;;;;;;;4.57;4.03;;;;;;;;;;5120230;28;20203;-52
2021/12/24 12:26:35;;;;;;;3.90;3.60;;;;;;;;;;5120189;27;20401;-53
2021/12/24 12:29:22;;;;;;;6.72;3.70;;;;;;;;;;5120464;28;20207;-52
2021/12/24 12:31:50;;;;;;;6.80;4.18;;;;;;;;;;5120224;28;20214;-54
2021/12/24 12:34:35;;;;;;;5.30;3.50;;;;;;;;;;5119973;28;20526;-54
2021/12/24 12:37:13;;;;;;;4.55;3.25;;;;;;;;;;5120528;28;20542;-52
2021/12/24 12:39:39;;;;;;;4.60;3.70;;;;;;;;;;5120340;28;20214;-54
2021/12/24 12:42:06;;;;;;;3.22;3.03;;;;;;;;;;5120047;28;20515;-54
2021/12/24 12:44:33;;;;;;;3.28;3.05;;;;;;;;;;5119656;28;20268;-53
2021/12/24 12:47:09;;;;;;;4.40;3.20;;;;;;;;;;5120255;28;20207;-54
2021/12/24 12:49:36;;;;;;;7.38;3.15;;;;;;;;;;5121119;28;20206;-56
2021/12/24 12:52:03;;;;;;;4.55;3.20;;;;;;;;;;5125829;28;20202;-57
2021/12/24 12:54:33;;;;;;;4.78;3.35;;;;;;;;;;5125017;28;20234;-56
2021/12/24 12:57:10;;;;;;;5.25;3.35;;;;;;;;;;5123639;28;20199;-57
2021/12/24 12:59:36;;;;;;;3.75;3.38;;;;;;;;;;5123943;28;20202;-55
2021/12/24 13:02:03;;;;;;;5.85;3.45;;;;;;;;;;5123334;28;20391;-56
2021/12/24 13:04:29;;;;;;;2.55;2.45;;;;;;;;;;5125182;28;20206;-56
2021/12/24 13:06:57;;;;;;;2.80;2.60;;;;;;;;;;5125244;28;20191;-57
2021/12/24 13:09:24;;;;;;;3.13;2.92;;;;;;;;;;5125073;28;20195;-58
2021/12/24 13:11:54;;;;;;;3.92;3.13;;;;;;;;;;5125135;28;20211;-58
2021/12/24 13:14:21;;;;;;;3.22;2.92;;;;;;;;;;5125401;28;20195;-58
2021/12/24 13:16:50;;;;;;;7.22;2.80;;;;;;;;;;5124614;28;20194;-57
2021/12/24 13:19:30;;;;;;;2.85;2.65;;;;;;;;;;5125339;28;20202;-57
2021/12/24 13:24:41;;;;;;;3.47;3.17;;;;;;;;;;5124525;28;20210;-57
2021/12/24 13:27:09;;;;;;;3.50;3.30;;;;;;;;;;5124880;28;20195;-57
2021/12/24 13:29:36;;;;;;;2.90;2.70;;;;;;;;;;5123801;28;20195;-55
2021/12/24 13:32:04;;;;;;;2.33;2.22;;;;;;;;;;5124823;28;20233;-57
2021/12/24 13:34:30;;;;;;;2.70;2.50;;;;;;;;;;5124294;27;20199;-56
2021/12/24 13:37:00;;;;;;;4.20;2.70;;;;;;;;;;5124634;28;20202;-57
2021/12/24 13:39:26;;;;;;;5.78;3.20;;;;;;;;;;5125005;28;20210;-57
2021/12/24 13:42:03;;;;;;;3.85;3.00;;;;;;;;;;5124904;28;20202;-57
2021/12/24 13:44:32;;;;;;;3.85;2.53;;;;;;;;;;5124102;28;20225;-57
2021/12/24 13:47:07;;;;;;;2.78;2.50;;;;;;;;;;5124782;28;20460;-56
2021/12/24 13:50:08;;;;;;;3.00;2.80;;;;;;;;;;5124331;28;20210;-57
2021/12/24 13:55:18;;;;;;;3.85;3.55;;;;;;;;;;5124026;28;20413;-57
2021/12/24 13:57:50;;;;;;;2.70;2.42;;;;;;;;;;5124118;28;20525;-56
2021/12/24 14:00:21;;;;;;;2.80;2.70;;;;;;;;;;5124497;28;20598;-58
2021/12/24 14:02:51;;;;;;;3.58;3.28;;;;;;;;;;5124378;28;20232;-57
2021/12/24 14:05:19;;;;;;;3.13;2.92;;;;;;;;;;5123738;28;20191;-56
2021/12/24 14:07:47;;;;;;;6.10;3.15;;;;;;;;;;5124038;28;20373;-57
2021/12/24 14:10:24;;;;;;;3.13;2.92;;;;;;;;;;5123902;28;20201;-58
2021/12/24 14:12:51;;;;;;;3.97;3.55;;;;;;;;;;5124057;28;20245;-57
2021/12/24 14:15:23;;;;;;;4.70;4.20;;;;;;;;;;5123358;28;20195;-58
2021/12/24 14:18:07;;;;;;;3.25;2.95;;;;;;;;;;5123109;28;20207;-56
2021/12/24 14:20:59;;;;;;;3.78;3.47;;;;;;;;;;5124121;28;20230;-57
2021/12/24 14:23:25;;;;;;;3.88;3.30;;;;;;;;;;5123659;28;20522;-58
2021/12/24 14:25:55;;;;;;;4.25;3.63;;;;;;;;;;5123499;28;20198;-57
2021/12/24 14:28:23;;;;;;;3.05;2.88;;;;;;;;;;5123662;28;20195;-58
2021/12/24 14:30:57;;;;;;;4.10;3.70;;;;;;;;;;5123801;28;20469;-58
2021/12/24 14:33:24;;;;;;;3.75;3.25;;;;;;;;;;5123412;28;20210;-58
2021/12/24 14:35:52;;;;;;;2.67;2.50;;;;;;;;;;5123425;28;20218;-58
2021/12/24 14:38:18;;;;;;;4.03;3.65;;;;;;;;;;5123754;28;20249;-57
2021/12/24 14:40:54;;;;;;;3.95;3.65;;;;;;;;;;5123432;28;20195;-57
2021/12/24 14:43:21;;;;;;;3.80;3.47;;;;;;;;;;5123591;28;20213;-58
2021/12/24 14:45:48;;;;;;;3.33;3.08;;;;;;;;;;5122694;28;20215;-57
2021/12/24 14:48:19;;;;;;;3.50;2.95;;;;;;;;;;5123357;28;20533;-56
2021/12/24 14:50:46;;;;;;;9.23;5.63;;;;;;;;;;5123378;28;20199;-57
2021/12/24 14:53:15;;;;;;;14.20;8.07;;;;;;;;;;5123560;28;20465;-57
2021/12/24 14:55:42;;;;;;;9.63;6.80;;;;;;;;;;5122987;28;20282;-58
2021/12/24 14:58:09;;;;;;;5.15;4.35;;;;;;;;;;5122693;28;20207;-57
2021/12/24 15:00:37;;;;;;;4.65;4.18;;;;;;;;;;5123293;28;20195;-57
2021/12/24 15:03:05;;;;;;;3.85;2.83;;;;;;;;;;5123133;28;20198;-57
2021/12/24 15:05:35;;;;;;;3.50;3.20;;;;;;;;;;5122739;28;20203;-55
2021/12/24 15:08:10;;;;;;;7.22;3.30;;;;;;;;;;5123045;28;20230;-56
2021/12/24 15:10:37;;;;;;;3.47;3.10;;;;;;;;;;5122771;28;20521;-56
2021/12/24 15:13:13;;;;;;;2.88;2.65;;;;;;;;;;5102145;28;20212;-58
2021/12/24 15:15:40;;;;;;;3.63;3.28;;;;;;;;;;5116148;28;20486;-58
2021/12/24 15:18:06;;;;;;;2.33;2.22;;;;;;;;;;5123005;28;20194;-57
2021/12/24 15:20:34;;;;;;;2.83;2.67;;;;;;;;;;5122869;28;20195;-57
2021/12/24 15:23:01;;;;;;;2.75;2.47;;;;;;;;;;5122699;28;20187;-58
2021/12/24 15:25:27;;;;;;;3.53;3.33;;;;;;;;;;5122518;28;20262;-58
2021/12/24 15:27:55;;;;;;;2.90;2.70;;;;;;;;;;5123012;28;20195;-57
2021/12/24 15:30:22;;;;;;;3.65;3.20;;;;;;;;;;5122348;28;20195;-58
2021/12/24 15:32:48;;;;;;;3.20;2.90;;;;;;;;;;5122343;28;20195;-59
2021/12/24 15:35:15;;;;;;;3.67;2.83;;;;;;;;;;5122322;28;20199;-57
2021/12/24 15:37:42;;;;;;;3.95;3.25;;;;;;;;;;5122536;28;20195;-58
2021/12/24 15:40:09;;;;;;;3.35;3.10;;;;;;;;;;5123193;28;20472;-60
2021/12/24 15:42:36;;;;;;;3.22;2.80;;;;;;;;;;5122522;28;20203;-57
2021/12/24 15:45:02;;;;;;;3.38;3.10;;;;;;;;;;5122634;28;20256;-57
2021/12/24 15:47:29;;;;;;;3.63;3.30;;;;;;;;;;5122158;28;20258;-56
2021/12/24 15:49:56;;;;;;;4.30;3.75;;;;;;;;;;5122486;28;20474;-66
2021/12/24 15:52:23;;;;;;;5.15;3.42;;;;;;;;;;5122385;28;20191;-67
2021/12/24 15:54:52;;;;;;;4.97;3.50;;;;;;;;;;5126822;28;20276;-67
2021/12/24 15:57:19;;;;;;;4.90;4.05;;;;;;;;;;5126869;28;20261;-66
2021/12/24 15:59:45;;;;;;;4.00;3.47;;;;;;;;;;5126580;28;20202;-66
2021/12/24 16:02:11;;;;;;;3.22;3.00;;;;;;;;;;5126531;28;20202;-66
2021/12/24 16:04:39;;;;;;;3.70;2.95;;;;;;;;;;5126419;28;20190;-66
2021/12/24 16:07:05;;;;;;;5.22;3.22;;;;;;;;;;5126481;28;20203;-66
2021/12/24 16:09:32;;;;;;;4.15;3.17;;;;;;;;;;5126579;28;20534;-67
2021/12/24 16:12:00;;;;;;;4.72;3.53;;;;;;;;;;5126566;28;20371;-66